createdAt,value
2023-04-11T00:00:06.889Z,53.04
2023-04-11T00:01:06.808Z,53.07
2023-04-11T00:02:06.859Z,53.05
2023-04-11T00:03:06.886Z,52.94
2023-04-11T00:04:07.065Z,52.82
2023-04-11T00:05:06.786Z,52.78
2023-04-11T00:06:06.771Z,52.73
2023-04-11T00:07:06.755Z,52.70
2023-04-11T00:08:06.762Z,52.87
2023-04-11T00:09:06.747Z,52.75
2023-04-11T00:10:06.720Z,52.73
2023-04-11T00:11:06.705Z,52.77
2023-04-11T00:12:06.678Z,52.69
2023-04-11T00:13:06.686Z,52.59
2023-04-11T00:14:06.659Z,52.51
2023-04-11T00:15:06.654Z,52.63
2023-04-11T00:16:06.666Z,52.55
2023-04-11T00:17:06.617Z,52.56
2023-04-11T00:18:06.622Z,52.59
2023-04-11T00:19:06.691Z,52.58
2023-04-11T00:20:06.595Z,52.57
2023-04-11T00:21:06.614Z,52.57
2023-04-11T00:22:14.294Z,52.52
2023-04-11T00:23:06.583Z,52.46
2023-04-11T00:24:06.567Z,52.50
2023-04-11T00:25:06.585Z,52.56
2023-04-11T00:26:06.579Z,52.66
2023-04-11T00:27:06.512Z,52.60
2023-04-11T00:28:06.502Z,52.71
2023-04-11T00:29:06.494Z,52.67
2023-04-11T00:30:06.455Z,52.87
2023-04-11T00:31:06.468Z,52.78
2023-04-11T00:32:06.489Z,52.66
2023-04-11T00:33:06.499Z,52.65
2023-04-11T00:34:06.412Z,52.61
2023-04-11T00:35:06.405Z,52.60
2023-04-11T00:36:06.468Z,52.69
2023-04-11T00:37:06.572Z,52.69
2023-04-11T00:38:06.402Z,52.72
2023-04-11T00:39:06.386Z,52.69
2023-04-11T00:40:06.323Z,52.60
2023-04-11T00:41:06.352Z,52.76
2023-04-11T00:42:06.322Z,52.65
2023-04-11T00:43:06.316Z,52.78
2023-04-11T00:44:06.301Z,52.62
2023-04-11T00:45:06.303Z,52.66
2023-04-11T00:46:06.372Z,52.78
2023-04-11T00:47:06.292Z,52.70
2023-04-11T00:48:06.282Z,52.75
2023-04-11T00:49:06.256Z,52.70
2023-04-11T00:50:06.248Z,52.58
2023-04-11T00:51:06.210Z,52.66
2023-04-11T00:52:06.234Z,52.60
2023-04-11T00:53:06.223Z,52.72
2023-04-11T00:54:06.161Z,52.91
2023-04-11T00:55:06.157Z,52.96
2023-04-11T00:56:06.206Z,52.93
2023-04-11T00:57:06.148Z,52.83
2023-04-11T00:58:06.110Z,52.89
2023-04-11T00:59:06.132Z,52.84
2023-04-11T01:00:06.107Z,52.89
2023-04-11T01:01:06.152Z,52.93
2023-04-11T01:02:06.168Z,53.17
2023-04-11T01:03:06.221Z,53.16
2023-04-11T01:04:06.141Z,53.08
2023-04-11T01:05:06.051Z,53.00
2023-04-11T01:06:06.046Z,53.10
2023-04-11T01:07:06.459Z,53.18
2023-04-11T01:08:06.020Z,53.04
2023-04-11T01:09:05.998Z,53.19
2023-04-11T01:10:05.985Z,53.08
2023-04-11T01:11:06.008Z,53.08
2023-04-11T01:12:05.967Z,53.11
2023-04-11T01:13:05.950Z,53.22
2023-04-11T01:14:05.955Z,53.18
2023-04-11T01:15:05.949Z,53.18
2023-04-11T01:16:05.919Z,53.43
2023-04-11T01:17:05.997Z,53.48
2023-04-11T01:18:06.008Z,53.53
2023-04-11T01:19:05.888Z,53.50
2023-04-11T01:20:05.863Z,53.43
2023-04-11T01:21:05.850Z,53.64
2023-04-11T01:22:05.865Z,53.68
2023-04-11T01:23:05.869Z,53.65
2023-04-11T01:24:05.808Z,53.82
2023-04-11T01:25:05.797Z,53.78
2023-04-11T01:26:05.799Z,53.87
2023-04-11T01:27:05.789Z,53.84
2023-04-11T01:28:05.767Z,53.78
2023-04-11T01:29:05.751Z,53.96
2023-04-11T01:30:05.744Z,54.04
2023-04-11T01:31:05.788Z,54.07
2023-04-11T01:32:05.735Z,54.21
2023-04-11T01:33:05.752Z,54.19
2023-04-11T01:34:05.708Z,54.29
2023-04-11T01:35:05.691Z,54.19
2023-04-11T01:36:05.691Z,54.15
2023-04-11T01:37:05.652Z,54.28
2023-04-11T01:38:05.644Z,54.21
2023-04-11T01:39:05.620Z,54.14
2023-04-11T01:40:05.607Z,54.33
2023-04-11T01:41:05.608Z,54.24
2023-04-11T01:42:05.596Z,54.36
2023-04-11T01:43:05.578Z,54.28
2023-04-11T01:44:05.589Z,54.31
2023-04-11T01:45:05.540Z,54.35
2023-04-11T01:46:05.522Z,54.41
2023-04-11T01:47:05.531Z,54.35
2023-04-11T01:48:05.625Z,54.42
2023-04-11T01:49:05.527Z,54.62
2023-04-11T01:50:05.498Z,54.87
2023-04-11T01:51:05.462Z,54.92
2023-04-11T01:52:05.474Z,55.13
2023-04-11T01:53:05.459Z,55.07
2023-04-11T01:54:05.472Z,55.33
2023-04-11T01:55:05.399Z,55.19
2023-04-11T01:56:05.417Z,54.80
2023-04-11T01:57:05.382Z,54.05
2023-04-11T01:58:05.409Z,53.49
2023-04-11T01:59:05.354Z,53.19
2023-04-11T02:00:05.408Z,52.46
2023-04-11T02:01:05.347Z,52.83
2023-04-11T02:02:05.404Z,52.18
2023-04-11T02:03:05.488Z,51.70
2023-04-11T02:04:05.402Z,51.80
2023-04-11T02:05:05.341Z,51.54
2023-04-11T02:06:05.289Z,51.32
2023-04-11T02:07:05.258Z,51.46
2023-04-11T02:08:05.262Z,51.45
2023-04-11T02:09:05.248Z,51.41
2023-04-11T02:10:05.300Z,50.95
2023-04-11T02:11:05.225Z,51.02
2023-04-11T02:12:05.821Z,51.09
2023-04-11T02:13:05.201Z,50.97
2023-04-11T02:14:05.177Z,50.80
2023-04-11T02:15:05.172Z,50.35
2023-04-11T02:16:05.294Z,50.35
2023-04-11T02:17:05.139Z,50.41
2023-04-11T02:18:05.166Z,50.48
2023-04-11T02:19:05.119Z,50.22
2023-04-11T02:20:05.097Z,50.28
2023-04-11T02:21:05.102Z,50.05
2023-04-11T02:22:05.077Z,49.77
2023-04-11T02:23:05.185Z,49.99
2023-04-11T02:24:05.055Z,50.04
2023-04-11T02:25:05.054Z,49.97
2023-04-11T02:26:05.074Z,49.98
2023-04-11T02:27:05.056Z,49.85
2023-04-11T02:28:07.346Z,49.80
2023-04-11T02:29:05.006Z,49.44
2023-04-11T02:30:04.996Z,49.41
2023-04-11T02:31:05.048Z,49.24
2023-04-11T02:32:05.115Z,49.31
2023-04-11T02:33:05.058Z,49.29
2023-04-11T02:34:04.945Z,49.48
2023-04-11T02:35:04.934Z,49.21
2023-04-11T02:36:04.958Z,48.43
2023-04-11T02:37:04.920Z,48.78
2023-04-11T02:38:04.893Z,48.74
2023-04-11T02:39:04.895Z,49.15
2023-04-11T02:40:04.860Z,49.06
2023-04-11T02:41:04.910Z,49.01
2023-04-11T02:42:04.840Z,48.88
2023-04-11T02:43:04.883Z,48.81
2023-04-11T02:44:04.821Z,48.88
2023-04-11T02:45:04.801Z,48.61
2023-04-11T02:46:12.692Z,48.61
2023-04-11T02:47:04.877Z,48.55
2023-04-11T02:48:04.851Z,48.34
2023-04-11T02:49:04.794Z,48.22
2023-04-11T02:50:04.766Z,48.40
2023-04-11T02:51:04.755Z,48.10
2023-04-11T02:52:04.753Z,48.05
2023-04-11T02:53:04.696Z,48.05
2023-04-11T02:54:04.730Z,48.32
2023-04-11T02:55:04.698Z,48.42
2023-04-11T02:56:04.658Z,48.44
2023-04-11T02:57:04.675Z,48.40
2023-04-11T02:58:04.684Z,48.05
2023-04-11T02:59:04.655Z,48.09
2023-04-11T03:00:04.609Z,48.18
2023-04-11T03:01:04.633Z,48.21
2023-04-11T03:02:04.668Z,48.11
2023-04-11T03:03:04.659Z,47.67
2023-04-11T03:04:04.642Z,47.50
2023-04-11T03:05:04.577Z,47.51
2023-04-11T03:06:04.540Z,47.53
2023-04-11T03:07:04.538Z,47.84
2023-04-11T03:08:04.524Z,47.82
2023-04-11T03:09:04.529Z,47.61
2023-04-11T03:10:04.499Z,47.68
2023-04-11T03:11:04.508Z,47.79
2023-04-11T03:12:04.477Z,47.34
2023-04-11T03:13:04.452Z,47.26
2023-04-11T03:14:04.499Z,47.22
2023-04-11T03:15:04.464Z,47.26
2023-04-11T03:16:04.436Z,47.95
2023-04-11T03:17:04.402Z,48.16
2023-04-11T03:18:04.443Z,48.82
2023-04-11T03:19:04.414Z,48.75
2023-04-11T03:20:04.446Z,49.10
2023-04-11T03:21:04.389Z,48.96
2023-04-11T03:22:04.403Z,49.09
2023-04-11T03:23:04.339Z,49.57
2023-04-11T03:24:04.355Z,49.54
2023-04-11T03:25:04.369Z,49.38
2023-04-11T03:26:04.306Z,49.64
2023-04-11T03:27:04.355Z,49.88
2023-04-11T03:28:04.303Z,49.78
2023-04-11T03:29:04.441Z,49.16
2023-04-11T03:30:04.292Z,49.28
2023-04-11T03:31:04.272Z,49.44
2023-04-11T03:32:04.248Z,49.14
2023-04-11T03:33:04.259Z,48.71
2023-04-11T03:34:04.219Z,48.90
2023-04-11T03:35:04.209Z,48.71
2023-04-11T03:36:04.230Z,48.43
2023-04-11T03:37:04.194Z,48.02
2023-04-11T03:38:04.163Z,47.27
2023-04-11T03:39:04.194Z,47.60
2023-04-11T03:40:04.172Z,48.07
2023-04-11T03:41:04.168Z,47.50
2023-04-11T03:42:04.106Z,47.27
2023-04-11T03:43:05.000Z,47.28
2023-04-11T03:44:04.110Z,47.27
2023-04-11T03:45:04.112Z,47.22
2023-04-11T03:46:04.065Z,46.91
2023-04-11T03:47:04.061Z,46.78
2023-04-11T03:48:04.042Z,46.92
2023-04-11T03:49:04.019Z,47.40
2023-04-11T03:50:04.021Z,47.03
2023-04-11T03:51:04.024Z,47.21
2023-04-11T03:52:03.989Z,46.75
2023-04-11T03:53:04.065Z,46.80
2023-04-11T03:54:03.983Z,46.77
2023-04-11T03:55:03.941Z,46.84
2023-04-11T03:56:03.945Z,46.75
2023-04-11T03:57:03.933Z,47.13
2023-04-11T03:58:03.892Z,47.10
2023-04-11T03:59:03.899Z,46.92
2023-04-11T04:00:03.925Z,46.89
2023-04-11T04:01:03.860Z,46.97
2023-04-11T04:02:04.067Z,46.99
2023-04-11T04:03:04.040Z,47.05
2023-04-11T04:04:04.359Z,46.90
2023-04-11T04:05:03.936Z,47.12
2023-04-11T04:06:03.805Z,47.07
2023-04-11T04:07:03.802Z,46.86
2023-04-11T04:08:03.790Z,47.08
2023-04-11T04:09:03.770Z,46.47
2023-04-11T04:10:03.747Z,46.59
2023-04-11T04:11:03.728Z,46.49
2023-04-11T04:12:03.739Z,46.73
2023-04-11T04:13:03.708Z,46.55
2023-04-11T04:14:03.683Z,46.58
2023-04-11T04:15:03.749Z,46.51
2023-04-11T04:16:04.103Z,46.76
2023-04-11T04:17:03.649Z,46.28
2023-04-11T04:18:03.713Z,46.42
2023-04-11T04:19:03.612Z,46.54
2023-04-11T04:20:03.613Z,46.28
2023-04-11T04:21:03.620Z,46.37
2023-04-11T04:22:03.598Z,46.31
2023-04-11T04:23:03.555Z,46.16
2023-04-11T04:24:03.777Z,46.36
2023-04-11T04:25:03.546Z,46.23
2023-04-11T04:26:03.548Z,46.36
2023-04-11T04:27:03.529Z,46.19
2023-04-11T04:28:03.495Z,46.30
2023-04-11T04:29:03.475Z,46.34
2023-04-11T04:30:04.439Z,46.16
2023-04-11T04:31:03.480Z,46.19
2023-04-11T04:32:03.546Z,46.01
2023-04-11T04:33:03.466Z,46.11
2023-04-11T04:34:03.456Z,45.99
2023-04-11T04:35:03.425Z,46.15
2023-04-11T04:36:03.465Z,46.19
2023-04-11T04:37:03.409Z,46.05
2023-04-11T04:38:03.373Z,46.05
2023-04-11T04:39:03.366Z,46.21
2023-04-11T04:40:03.390Z,46.05
2023-04-11T04:41:03.331Z,46.82
2023-04-11T04:42:03.351Z,47.59
2023-04-11T04:43:03.324Z,48.17
2023-04-11T04:44:03.289Z,48.67
2023-04-11T04:45:03.292Z,49.65
2023-04-11T04:46:03.310Z,50.95
2023-04-11T04:47:03.259Z,50.81
2023-04-11T04:48:03.305Z,50.61
2023-04-11T04:49:03.239Z,50.17
2023-04-11T04:50:03.240Z,51.18
2023-04-11T04:51:03.225Z,50.78
2023-04-11T04:52:03.230Z,51.19
2023-04-11T04:53:03.197Z,51.07
2023-04-11T04:54:03.172Z,51.32
2023-04-11T04:55:03.167Z,51.37
2023-04-11T04:56:03.265Z,51.67
2023-04-11T04:57:03.180Z,51.70
2023-04-11T04:58:03.158Z,51.99
2023-04-11T04:59:03.137Z,51.37
2023-04-11T05:00:03.131Z,51.98
2023-04-11T05:01:03.079Z,51.87
2023-04-11T05:02:03.345Z,51.64
2023-04-11T05:03:03.212Z,51.69
2023-04-11T05:04:03.344Z,51.90
2023-04-11T05:05:03.021Z,52.12
2023-04-11T05:06:03.101Z,52.39
2023-04-11T05:07:03.066Z,52.78
2023-04-11T05:08:03.696Z,52.47
2023-04-11T05:09:03.134Z,52.70
2023-04-11T05:10:03.003Z,52.87
2023-04-11T05:11:03.950Z,52.92
2023-04-11T05:12:03.685Z,53.14
2023-04-11T05:13:04.751Z,53.09
2023-04-11T05:14:03.393Z,53.56
2023-04-11T05:15:02.952Z,54.27
2023-04-11T05:16:02.961Z,55.71
2023-04-11T05:17:03.091Z,56.59
2023-04-11T05:18:03.274Z,57.81
2023-04-11T05:19:02.932Z,57.24
2023-04-11T05:20:03.056Z,57.57
2023-04-11T05:21:02.899Z,58.84
2023-04-11T05:22:03.275Z,59.86
2023-04-11T05:23:02.863Z,61.42
2023-04-11T05:24:02.790Z,61.73
2023-04-11T05:25:02.795Z,61.90
2023-04-11T05:26:02.970Z,62.57
2023-04-11T05:27:02.979Z,63.04
2023-04-11T05:28:02.937Z,62.84
2023-04-11T05:29:02.823Z,63.19
2023-04-11T05:30:02.856Z,62.90
2023-04-11T05:31:02.999Z,62.64
2023-04-11T05:32:02.805Z,62.78
2023-04-11T05:33:02.728Z,62.23
2023-04-11T05:34:02.744Z,62.30
2023-04-11T05:35:02.995Z,61.72
2023-04-11T05:36:02.989Z,62.26
2023-04-11T05:37:02.703Z,61.43
2023-04-11T05:38:02.641Z,61.50
2023-04-11T05:39:02.599Z,61.50
2023-04-11T05:40:02.660Z,61.57
2023-04-11T05:41:02.654Z,61.55
2023-04-11T05:42:02.643Z,61.20
2023-04-11T05:43:02.779Z,61.16
2023-04-11T05:44:02.922Z,61.22
2023-04-11T05:45:02.828Z,60.89
2023-04-11T05:46:02.647Z,61.36
2023-04-11T05:47:02.540Z,61.45
2023-04-11T05:48:02.975Z,61.93
2023-04-11T05:49:02.935Z,62.13
2023-04-11T05:50:02.680Z,62.37
2023-04-11T05:51:02.525Z,62.61
2023-04-11T05:52:02.821Z,62.81
2023-04-11T05:53:02.769Z,63.08
2023-04-11T05:54:03.477Z,63.15
2023-04-11T05:55:02.472Z,63.18
2023-04-11T05:56:02.618Z,63.63
2023-04-11T05:57:03.384Z,63.62
2023-04-11T05:58:02.445Z,64.11
2023-04-11T05:59:02.494Z,64.36
2023-04-11T06:00:02.721Z,64.37
2023-04-11T06:01:02.365Z,64.60
2023-04-11T06:02:02.532Z,64.77
2023-04-11T06:03:02.414Z,64.99
2023-04-11T06:04:02.822Z,65.03
2023-04-11T06:05:02.459Z,65.22
2023-04-11T06:06:06.483Z,65.34
2023-04-11T06:07:02.652Z,65.36
2023-04-11T06:08:02.331Z,65.43
2023-04-11T06:09:03.426Z,65.55
2023-04-11T06:10:04.300Z,65.64
2023-04-11T06:11:03.040Z,65.75
2023-04-11T06:12:02.762Z,65.84
2023-04-11T06:13:02.366Z,65.96
2023-04-11T06:14:11.554Z,65.85
2023-04-11T06:15:02.251Z,66.02
2023-04-11T06:16:02.213Z,65.97
2023-04-11T06:17:03.084Z,65.99
2023-04-11T06:18:03.834Z,66.04
2023-04-11T06:19:02.423Z,66.03
2023-04-11T06:20:04.766Z,65.86
2023-04-11T06:21:02.157Z,65.84
2023-04-11T06:22:02.316Z,65.92
2023-04-11T06:23:08.611Z,65.97
2023-04-11T06:24:02.106Z,65.97
2023-04-11T06:25:02.034Z,65.96
2023-04-11T06:26:02.030Z,65.90
2023-04-11T06:27:01.998Z,65.95
2023-04-11T06:28:01.995Z,65.98
2023-04-11T06:29:01.995Z,66.09
2023-04-11T06:30:02.035Z,66.07
2023-04-11T06:31:02.041Z,66.06
2023-04-11T06:32:01.963Z,66.18
2023-04-11T06:33:02.008Z,66.26
2023-04-11T06:34:01.966Z,66.26
2023-04-11T06:35:01.923Z,66.38
2023-04-11T06:36:03.103Z,66.42
2023-04-11T06:37:02.634Z,66.69
2023-04-11T06:38:03.214Z,67.13
2023-04-11T06:39:01.869Z,67.56
2023-04-11T06:40:01.837Z,68.07
2023-04-11T06:41:01.844Z,68.48
2023-04-11T06:42:01.814Z,68.63
2023-04-11T06:43:01.821Z,69.41
2023-04-11T06:44:01.835Z,69.56
2023-04-11T06:45:01.907Z,69.99
2023-04-11T06:46:01.801Z,70.43
2023-04-11T06:47:01.850Z,70.94
2023-04-11T06:48:01.794Z,71.49
2023-04-11T06:49:01.731Z,71.94
2023-04-11T06:50:01.743Z,72.39
2023-04-11T06:51:01.720Z,73.33
2023-04-11T06:52:01.710Z,74.33
2023-04-11T06:53:01.722Z,74.90
2023-04-11T06:54:01.689Z,75.97
2023-04-11T06:55:01.758Z,76.40
2023-04-11T06:56:01.642Z,76.77
2023-04-11T06:57:01.704Z,77.33
2023-04-11T06:58:01.629Z,77.82
2023-04-11T06:59:01.605Z,78.61
2023-04-11T07:00:02.334Z,79.44
2023-04-11T07:01:01.584Z,79.76
2023-04-11T07:02:01.687Z,80.01
2023-04-11T07:03:01.739Z,80.42
2023-04-11T07:04:01.704Z,80.57
2023-04-11T07:05:01.874Z,80.80
2023-04-11T07:06:01.592Z,81.14
2023-04-11T07:07:01.518Z,81.37
2023-04-11T07:08:01.542Z,81.63
2023-04-11T07:09:01.472Z,81.84
2023-04-11T07:10:01.482Z,81.89
2023-04-11T07:11:01.461Z,82.10
2023-04-11T07:12:01.467Z,82.27
2023-04-11T07:13:01.452Z,82.31
2023-04-11T07:14:01.441Z,82.56
2023-04-11T07:15:01.461Z,82.87
2023-04-11T07:16:01.543Z,82.99
2023-04-11T07:17:01.418Z,82.93
2023-04-11T07:18:01.405Z,83.03
2023-04-11T07:19:01.371Z,83.19
2023-04-11T07:20:01.358Z,83.24
2023-04-11T07:21:01.399Z,83.42
2023-04-11T07:22:01.337Z,83.66
2023-04-11T07:23:01.303Z,83.77
2023-04-11T07:24:01.305Z,83.81
2023-04-11T07:25:01.309Z,83.96
2023-04-11T07:26:01.304Z,84.06
2023-04-11T07:27:01.263Z,84.25
2023-04-11T07:28:01.269Z,84.47
2023-04-11T07:29:01.343Z,84.64
2023-04-11T07:30:01.220Z,84.77
2023-04-11T07:31:01.219Z,84.81
2023-04-11T07:32:01.210Z,84.93
2023-04-11T07:33:01.224Z,85.12
2023-04-11T07:34:01.216Z,85.21
2023-04-11T07:35:01.182Z,85.28
2023-04-11T07:36:01.233Z,85.34
2023-04-11T07:37:01.299Z,85.38
2023-04-11T07:38:01.152Z,85.51
2023-04-11T07:39:01.116Z,85.55
2023-04-11T07:40:01.092Z,85.66
2023-04-11T07:41:01.133Z,85.76
2023-04-11T07:42:01.069Z,85.84
2023-04-11T07:43:01.070Z,85.90
2023-04-11T07:44:01.057Z,85.97
2023-04-11T07:45:01.021Z,86.11
2023-04-11T07:46:01.081Z,86.17
2023-04-11T07:47:01.027Z,86.25
2023-04-11T07:48:01.044Z,86.20
2023-04-11T07:49:00.975Z,86.20
2023-04-11T07:50:00.957Z,86.25
2023-04-11T07:51:00.976Z,86.28
2023-04-11T07:52:00.980Z,86.35
2023-04-11T07:53:00.923Z,86.39
2023-04-11T07:54:00.930Z,86.43
2023-04-11T07:55:00.910Z,86.46
2023-04-11T07:56:01.019Z,86.49
2023-04-11T07:57:00.924Z,86.46
2023-04-11T07:58:00.906Z,86.43
2023-04-11T07:59:00.858Z,86.47
2023-04-11T08:00:00.881Z,86.42
2023-04-11T08:01:00.825Z,86.43
2023-04-11T08:02:00.960Z,86.48
2023-04-11T08:03:00.960Z,86.48
2023-04-11T08:04:01.105Z,86.44
2023-04-11T08:05:00.840Z,86.47
2023-04-11T08:06:00.791Z,86.46
2023-04-11T08:07:00.768Z,86.49
2023-04-11T08:08:00.737Z,86.56
2023-04-11T08:09:00.755Z,86.47
2023-04-11T08:10:00.729Z,86.40
2023-04-11T08:11:00.712Z,86.31
2023-04-11T08:12:02.203Z,86.32
2023-04-11T08:13:00.684Z,86.34
2023-04-11T08:14:00.732Z,86.42
2023-04-11T08:15:00.658Z,86.31
2023-04-11T08:16:00.638Z,86.28
2023-04-11T08:17:00.675Z,86.25
2023-04-11T08:18:00.621Z,86.28
2023-04-11T08:19:00.597Z,86.23
2023-04-11T08:20:02.347Z,86.24
2023-04-11T08:21:00.607Z,86.15
2023-04-11T08:22:00.563Z,86.09
2023-04-11T08:23:00.574Z,86.02
2023-04-11T08:24:00.546Z,85.94
2023-04-11T08:25:00.548Z,85.86
2023-04-11T08:26:01.501Z,85.86
2023-04-11T08:27:00.528Z,85.80
2023-04-11T08:28:00.488Z,85.83
2023-04-11T08:29:00.509Z,85.72
2023-04-11T08:30:00.480Z,85.62
2023-04-11T08:31:00.527Z,85.57
2023-04-11T08:32:00.476Z,85.45
2023-04-11T08:33:00.631Z,85.48
2023-04-11T08:34:01.467Z,85.46
2023-04-11T08:35:00.405Z,85.50
2023-04-11T08:36:00.426Z,85.51
2023-04-11T08:37:00.381Z,85.52
2023-04-11T08:38:00.366Z,85.50
2023-04-11T08:39:00.351Z,85.55
2023-04-11T08:40:00.386Z,85.63
2023-04-11T08:41:00.342Z,85.62
2023-04-11T08:42:00.328Z,85.61
2023-04-11T08:43:00.331Z,85.73
2023-04-11T08:44:00.311Z,85.79
2023-04-11T08:45:00.268Z,85.81
2023-04-11T08:46:00.311Z,85.80
2023-04-11T08:47:00.297Z,85.66
2023-04-11T08:48:00.319Z,85.25
2023-04-11T08:49:00.230Z,84.60
2023-04-11T08:50:00.227Z,84.04
2023-04-11T08:51:00.195Z,83.73
2023-04-11T08:52:00.174Z,83.56
2023-04-11T08:53:00.180Z,83.29
2023-04-11T08:54:00.170Z,83.05
2023-04-11T08:55:00.176Z,82.85
2023-04-11T08:56:00.132Z,82.76
2023-04-11T08:57:00.167Z,83.01
2023-04-11T08:58:00.122Z,82.91
2023-04-11T08:59:00.204Z,83.00
2023-04-11T09:00:00.203Z,82.85
2023-04-11T09:01:00.193Z,82.84
2023-04-11T09:02:00.182Z,82.76
2023-04-11T09:03:00.170Z,82.53
2023-04-11T09:04:00.246Z,82.40
2023-04-11T09:05:00.060Z,81.99
2023-04-11T09:06:00.061Z,81.80
2023-04-11T09:07:01.326Z,81.97
2023-04-11T09:08:00.081Z,81.86
2023-04-11T09:08:59.986Z,81.77
2023-04-11T09:09:59.947Z,81.77
2023-04-11T09:10:59.996Z,81.68
2023-04-11T09:11:59.945Z,81.64
2023-04-11T09:12:59.948Z,81.73
2023-04-11T09:13:59.942Z,81.82
2023-04-11T09:14:59.911Z,81.81
2023-04-11T09:16:00.031Z,81.91
2023-04-11T09:16:59.880Z,81.81
2023-04-11T09:18:00.803Z,81.66
2023-04-11T09:18:59.902Z,81.37
2023-04-11T09:19:59.836Z,81.27
2023-04-11T09:20:59.821Z,81.58
2023-04-11T09:21:59.867Z,81.60
2023-04-11T09:22:59.979Z,81.31
2023-04-11T09:23:59.784Z,81.36
2023-04-11T09:24:59.776Z,81.45
2023-04-11T09:25:59.746Z,81.36
2023-04-11T09:26:59.770Z,81.43
2023-04-11T09:27:59.723Z,81.61
2023-04-11T09:28:59.905Z,81.58
2023-04-11T09:29:59.720Z,81.37
2023-04-11T09:30:59.717Z,81.38
2023-04-11T09:31:59.729Z,81.10
2023-04-11T09:32:59.689Z,80.62
2023-04-11T09:34:00.074Z,80.52
2023-04-11T09:34:59.648Z,80.48
2023-04-11T09:35:59.647Z,80.61
2023-04-11T09:36:59.644Z,80.32
2023-04-11T09:37:59.601Z,80.57
2023-04-11T09:38:59.603Z,80.46
2023-04-11T09:39:59.582Z,80.46
2023-04-11T09:40:59.593Z,80.40
2023-04-11T09:41:59.565Z,80.71
2023-04-11T09:42:59.537Z,80.57
2023-04-11T09:43:59.551Z,80.46
2023-04-11T09:44:59.530Z,80.23
2023-04-11T09:45:59.511Z,80.26
2023-04-11T09:46:59.704Z,80.41
2023-04-11T09:47:59.583Z,79.39
2023-04-11T09:48:59.477Z,79.60
2023-04-11T09:49:59.512Z,80.08
2023-04-11T09:50:59.439Z,80.19
2023-04-11T09:51:59.436Z,79.94
2023-04-11T09:52:59.557Z,79.78
2023-04-11T09:53:59.548Z,79.55
2023-04-11T09:54:59.391Z,79.28
2023-04-11T09:55:59.387Z,79.20
2023-04-11T09:56:59.371Z,78.97
2023-04-11T09:57:59.339Z,79.46
2023-04-11T09:58:59.338Z,79.01
2023-04-11T09:59:59.332Z,78.75
2023-04-11T10:00:59.315Z,77.92
2023-04-11T10:01:59.361Z,77.81
2023-04-11T10:02:59.480Z,76.92
2023-04-11T10:03:59.381Z,76.73
2023-04-11T10:04:59.297Z,77.19
2023-04-11T10:05:59.289Z,76.79
2023-04-11T10:06:59.245Z,76.76
2023-04-11T10:07:59.213Z,75.79
2023-04-11T10:08:59.205Z,75.75
2023-04-11T10:09:59.206Z,75.91
2023-04-11T10:10:59.214Z,76.25
2023-04-11T10:11:59.193Z,75.65
2023-04-11T10:12:59.182Z,75.62
2023-04-11T10:13:59.192Z,75.67
2023-04-11T10:14:59.128Z,75.64
2023-04-11T10:15:59.188Z,75.50
2023-04-11T10:16:59.126Z,75.77
2023-04-11T10:17:59.109Z,75.29
2023-04-11T10:18:59.093Z,75.34
2023-04-11T10:19:59.071Z,75.42
2023-04-11T10:20:59.077Z,75.49
2023-04-11T10:21:59.085Z,75.72
2023-04-11T10:22:59.044Z,75.88
2023-04-11T10:23:59.009Z,76.04
2023-04-11T10:24:58.993Z,75.67
2023-04-11T10:25:59.000Z,75.11
2023-04-11T10:26:59.001Z,75.53
2023-04-11T10:27:58.979Z,74.86
2023-04-11T10:28:58.973Z,74.80
2023-04-11T10:29:58.955Z,74.73
2023-04-11T10:30:58.974Z,74.92
2023-04-11T10:31:59.003Z,74.67
2023-04-11T10:32:58.949Z,74.61
2023-04-11T10:33:58.886Z,74.58
2023-04-11T10:34:58.901Z,74.71
2023-04-11T10:35:58.929Z,75.33
2023-04-11T10:36:58.861Z,75.08
2023-04-11T10:37:58.842Z,75.34
2023-04-11T10:38:58.832Z,75.41
2023-04-11T10:39:58.818Z,75.93
2023-04-11T10:40:58.802Z,76.70
2023-04-11T10:41:58.810Z,77.21
2023-04-11T10:42:58.778Z,77.72
2023-04-11T10:43:58.972Z,77.95
2023-04-11T10:44:58.783Z,78.03
2023-04-11T10:45:58.723Z,77.99
2023-04-11T10:46:58.784Z,78.24
2023-04-11T10:47:58.795Z,78.20
2023-04-11T10:48:58.738Z,78.30
2023-04-11T10:49:58.725Z,78.17
2023-04-11T10:50:58.666Z,78.10
2023-04-11T10:51:58.711Z,77.89
2023-04-11T10:52:58.752Z,77.61
2023-04-11T10:53:58.676Z,77.62
2023-04-11T10:54:58.633Z,77.63
2023-04-11T10:55:58.616Z,77.31
2023-04-11T10:56:58.678Z,76.61
2023-04-11T10:57:58.585Z,76.63
2023-04-11T10:58:58.560Z,76.46
2023-04-11T10:59:58.557Z,76.52
2023-04-11T11:00:58.562Z,76.25
2023-04-11T11:01:58.888Z,75.94
2023-04-11T11:02:58.680Z,75.62
2023-04-11T11:03:58.859Z,75.19
2023-04-11T11:04:58.542Z,75.41
2023-04-11T11:05:58.532Z,75.08
2023-04-11T11:06:58.475Z,75.09
2023-04-11T11:07:58.450Z,74.96
2023-04-11T11:08:58.506Z,74.65
2023-04-11T11:09:58.429Z,74.74
2023-04-11T11:10:58.426Z,74.37
2023-04-11T11:11:58.392Z,74.48
2023-04-11T11:12:58.423Z,74.46
2023-04-11T11:13:58.776Z,74.14
2023-04-11T11:14:58.353Z,73.82
2023-04-11T11:15:58.341Z,73.69
2023-04-11T11:16:58.481Z,73.29
2023-04-11T11:17:58.385Z,73.47
2023-04-11T11:18:58.298Z,73.47
2023-04-11T11:19:58.292Z,73.51
2023-04-11T11:20:58.283Z,73.45
2023-04-11T11:21:58.284Z,72.90
2023-04-11T11:22:58.283Z,72.99
2023-04-11T11:23:58.764Z,72.51
2023-04-11T11:24:58.232Z,71.76
2023-04-11T11:25:58.211Z,72.27
2023-04-11T11:26:58.219Z,72.26
2023-04-11T11:27:58.209Z,71.88
2023-04-11T11:28:58.186Z,72.21
2023-04-11T11:29:58.168Z,71.49
2023-04-11T11:30:58.158Z,71.40
2023-04-11T11:31:58.147Z,71.49
2023-04-11T11:32:58.200Z,71.23
2023-04-11T11:34:04.767Z,70.95
2023-04-11T11:34:58.104Z,71.36
2023-04-11T11:35:58.095Z,71.06
2023-04-11T11:36:58.155Z,70.18
2023-04-11T11:37:58.104Z,70.83
2023-04-11T11:38:58.192Z,70.05
2023-04-11T11:39:58.032Z,69.90
2023-04-11T11:40:58.064Z,69.56
2023-04-11T11:41:58.031Z,69.47
2023-04-11T11:42:58.024Z,69.56
2023-04-11T11:43:58.341Z,69.48
2023-04-11T11:44:57.988Z,69.50
2023-04-11T11:45:57.997Z,69.17
2023-04-11T11:46:57.951Z,69.08
2023-04-11T11:47:58.005Z,69.57
2023-04-11T11:48:58.468Z,69.72
2023-04-11T11:49:57.915Z,69.53
2023-04-11T11:50:58.019Z,69.37
2023-04-11T11:51:57.875Z,69.49
2023-04-11T11:52:57.902Z,69.66
2023-04-11T11:53:57.876Z,69.79
2023-04-11T11:54:57.848Z,69.31
2023-04-11T11:55:57.826Z,69.19
2023-04-11T11:56:57.837Z,69.27
2023-04-11T11:57:57.817Z,68.79
2023-04-11T11:58:58.013Z,68.54
2023-04-11T11:59:57.829Z,68.33
2023-04-11T12:00:57.776Z,68.33
2023-04-11T12:01:57.792Z,68.70
2023-04-11T12:02:57.926Z,68.86
2023-04-11T12:03:58.336Z,69.24
2023-04-11T12:04:58.062Z,69.54
2023-04-11T12:05:57.723Z,69.56
2023-04-11T12:06:57.691Z,69.05
2023-04-11T12:07:57.713Z,69.11
2023-04-11T12:08:57.685Z,68.84
2023-04-11T12:09:57.657Z,68.92
2023-04-11T12:10:57.679Z,68.69
2023-04-11T12:11:57.621Z,68.96
2023-04-11T12:12:57.634Z,69.39
2023-04-11T12:13:57.845Z,68.92
2023-04-11T12:14:57.648Z,68.67
2023-04-11T12:15:57.720Z,68.34
2023-04-11T12:16:57.620Z,68.64
2023-04-11T12:17:57.585Z,68.45
2023-04-11T12:18:57.578Z,68.25
2023-04-11T12:19:57.535Z,67.40
2023-04-11T12:20:57.514Z,66.73
2023-04-11T12:21:57.506Z,66.07
2023-04-11T12:22:57.511Z,65.62
2023-04-11T12:24:03.998Z,65.81
2023-04-11T12:24:58.992Z,65.02
2023-04-11T12:25:57.438Z,64.67
2023-04-11T12:27:06.443Z,63.58
2023-04-11T12:27:57.430Z,63.65
2023-04-11T12:28:57.848Z,63.34
2023-04-11T12:29:57.403Z,63.20
2023-04-11T12:30:57.412Z,63.78
2023-04-11T12:31:57.399Z,63.67
2023-04-11T12:32:57.461Z,62.84
2023-04-11T12:33:57.579Z,62.38
2023-04-11T12:34:57.384Z,62.08
2023-04-11T12:35:57.337Z,62.16
2023-04-11T12:36:57.305Z,61.70
2023-04-11T12:37:57.316Z,62.31
2023-04-11T12:38:57.442Z,61.52
2023-04-11T12:39:57.294Z,60.69
2023-04-11T12:44:22.790Z,60.39
2023-04-11T12:44:27.921Z,60.39
2023-04-11T12:44:33.696Z,60.13
2023-04-11T12:45:33.691Z,60.06
2023-04-11T12:46:33.917Z,60.00
2023-04-11T12:47:33.693Z,59.96
2023-04-11T12:48:33.658Z,60.30
2023-04-11T12:49:33.651Z,59.82
2023-04-11T12:50:33.628Z,60.04
2023-04-11T12:51:33.648Z,59.81
2023-04-11T12:52:33.608Z,59.73
2023-04-11T12:53:33.590Z,59.60